Current | Forecast
Updated: 7:00 PM JST on May 21, 2018
Observed at Akita Airport, Japan
Temperature 57°F
Humidity 63%
Dew Point 45°F
Wind NW at 2 mph
Pressure 30.15 in (Rising)
Conditions Partly Cloudy
Visibility 6.2 miles
UV 0 out of 16
Clouds (FEW) : 5000 ft
Yesterday's Maximum 61°F
Yesterday's Minimum 50°F approx.
Yesterday's Heating Degree Days 10 approx.
Sunrise4:20 AM JST
Sunset6:52 PM JST
Moon Rise9:59 AM JST
Moon Set
Moon PhaseMoon Phase
Waxing Crescent
Raw METARMETAR RJSK 211000Z 31002KT 9999 FEW050 BKN/// 14/07 Q1021


Monday
. High: 78° F.
Tuesday
. High: 78° F.
Wednesday
. High: 66° F.
Thursday
. High: 69° F.
Friday
. High: 73° F.
Saturday
. High: 69° F.
Sunday
. High: 64° F.
Monday
. High: 66° F.

Units: English | Metric

Find the Weather for any City, State or Zipcode, or Country:

U.S. State List | Severe Weather | Tropical Storms | Ski Conditions
United States | Canada | Central America | South America | Asia | Europe | Australia | Africa | Islands

Weather Underground

© Copyright 2018
The Weather Company, LLC